Portada
METAR-TAF:

METAR-TAF

Aeropuertos :

Aeropuerto Internacional de Taba

Taba, Egipto

latitud: 29-35-57N, longitud: 034-46-36E, altitud: 749 m

METAR: falta

Hora: 14:32 (12:32 UTC)

Pronóstico

El informe se hizo hace 1 hora y 32 minutos, a las 11:00 UTC
Pronóstico válido del 25 a las 12 UTC al 26 a las 18 UTC
Viento 15 kt del norte-noreste
Visibilidad 10 km o más
sin nubes por debajo de 1500 m y sin presencia de cumulonimbus.

TAF: HETB 251100Z 2512/2618 03015KT CAVOK

Observaciones y pronósticos meteorológicos de más de 4000 aeropuertos (mensajes METAR y TAF).

Los puntos amarillos y rojos representan las estaciones disponibles.

Ponga el ratón en el punto deseado para ver el nombre de la estación.

Haga clic para ver las observaciones y los pronósticos meteorológicos.

Para cambiar el mapa : haga clic en los botones verdes con una cruz de color negro para hacer un zoom, en el botón verde con un guión para alejar o en las flechas verdes para mapas adyacentes.


METAR-TAF: